createdAt,value
2022-08-05T00:01:49.874Z,51
2022-08-05T00:02:55.008Z,51
2022-08-05T00:04:01.368Z,51
2022-08-05T00:06:27.900Z,51
2022-08-05T00:08:03.645Z,51
2022-08-05T00:09:20.694Z,51
2022-08-05T00:10:28.081Z,51
2022-08-05T00:12:00.469Z,51
2022-08-05T00:13:03.693Z,51
2022-08-05T00:14:18.023Z,51
2022-08-05T00:16:00.972Z,51
2022-08-05T00:17:21.020Z,51
2022-08-05T00:18:24.903Z,51
2022-08-05T00:20:03.528Z,51
2022-08-05T00:21:09.415Z,51
2022-08-05T00:22:12.865Z,51
2022-08-05T00:23:14.091Z,51
2022-08-05T00:24:32.071Z,51
2022-08-05T00:25:46.903Z,51
2022-08-05T00:26:53.847Z,51
2022-08-05T00:27:56.986Z,51
2022-08-05T00:28:58.417Z,51
2022-08-05T00:30:03.939Z,51
2022-08-05T00:31:11.240Z,51
2022-08-05T00:32:16.479Z,51
2022-08-05T00:35:08.536Z,51
2022-08-05T00:37:14.860Z,52
2022-08-05T00:38:35.162Z,52
2022-08-05T00:39:59.798Z,52
2022-08-05T00:41:01.913Z,52
2022-08-05T00:42:03.850Z,52
2022-08-05T00:43:15.663Z,52
2022-08-05T00:44:17.789Z,52
2022-08-05T00:45:44.864Z,52
2022-08-05T00:47:06.315Z,52
2022-08-05T00:48:13.248Z,52
2022-08-05T00:49:19.540Z,52
2022-08-05T00:50:26.316Z,52
2022-08-05T00:51:53.740Z,52
2022-08-05T00:53:02.623Z,52
2022-08-05T00:54:12.566Z,52
2022-08-05T00:55:19.396Z,52
2022-08-05T00:56:25.713Z,52
2022-08-05T00:57:59.768Z,52
2022-08-05T00:59:09.562Z,52
2022-08-05T01:00:17.193Z,52
2022-08-05T01:01:53.006Z,52
2022-08-05T01:02:54.113Z,52
2022-08-05T01:03:55.586Z,52
2022-08-05T01:04:56.766Z,52
2022-08-05T01:05:59.427Z,52
2022-08-05T01:07:05.922Z,52
2022-08-05T01:08:47.967Z,52
2022-08-05T01:09:56.901Z,52
2022-08-05T01:10:59.021Z,52
2022-08-05T01:12:19.600Z,52
2022-08-05T01:14:00.673Z,52
2022-08-05T01:15:36.715Z,52
2022-08-05T01:16:48.615Z,52
2022-08-05T01:17:54.850Z,52
2022-08-05T01:18:57.319Z,52
2022-08-05T01:20:04.268Z,52
2022-08-05T01:21:05.859Z,52
2022-08-05T01:22:28.416Z,52
2022-08-05T01:23:35.709Z,52
2022-08-05T01:24:39.253Z,52
2022-08-05T01:25:54.377Z,52
2022-08-05T01:26:55.503Z,52
2022-08-05T01:27:57.654Z,53
2022-08-05T01:29:06.092Z,53
2022-08-05T01:30:35.470Z,53
2022-08-05T01:31:50.116Z,53
2022-08-05T01:32:53.041Z,53
2022-08-05T01:33:56.603Z,53
2022-08-05T01:34:59.018Z,53
2022-08-05T01:36:02.562Z,52
2022-08-05T01:37:05.475Z,52
2022-08-05T01:38:06.716Z,52
2022-08-05T01:39:09.826Z,52
2022-08-05T01:40:11.132Z,52
2022-08-05T01:41:15.849Z,52
2022-08-05T01:42:23.181Z,52
2022-08-05T01:43:25.279Z,52
2022-08-05T01:44:36.261Z,52
2022-08-05T01:45:58.051Z,52
2022-08-05T01:47:13.329Z,53
2022-08-05T01:48:17.754Z,53
2022-08-05T01:50:02.346Z,53
2022-08-05T01:51:13.950Z,53
2022-08-05T01:52:19.764Z,53
2022-08-05T01:54:02.501Z,53
2022-08-05T01:55:08.550Z,53
2022-08-05T01:56:10.436Z,53
2022-08-05T01:58:16.903Z,53
2022-08-05T01:59:17.901Z,53
2022-08-05T02:00:18.934Z,53
2022-08-05T02:01:40.558Z,53
2022-08-05T02:02:55.757Z,53
2022-08-05T02:03:59.127Z,53
2022-08-05T02:05:00.948Z,53
2022-08-05T02:06:40.019Z,53
2022-08-05T02:08:03.165Z,53
2022-08-05T02:09:06.700Z,53
2022-08-05T02:10:09.713Z,53
2022-08-05T02:11:34.831Z,54
2022-08-05T02:12:45.825Z,54
2022-08-05T02:13:58.272Z,54
2022-08-05T02:15:04.866Z,54
2022-08-05T02:16:23.493Z,54
2022-08-05T02:18:36.946Z,54
2022-08-05T02:19:48.368Z,54
2022-08-05T02:20:59.922Z,54
2022-08-05T02:22:01.753Z,54
2022-08-05T02:23:05.544Z,54
2022-08-05T02:24:18.711Z,54
2022-08-05T02:25:50.515Z,54
2022-08-05T02:26:57.162Z,54
2022-08-05T02:28:01.257Z,54
2022-08-05T02:29:05.144Z,54
2022-08-05T02:30:30.280Z,54
2022-08-05T02:31:35.789Z,54
2022-08-05T02:32:41.456Z,54
2022-08-05T02:33:44.058Z,54
2022-08-05T02:35:09.766Z,54
2022-08-05T02:36:32.407Z,53
2022-08-05T02:37:37.374Z,53
2022-08-05T02:38:43.758Z,53
2022-08-05T02:39:55.813Z,53
2022-08-05T02:41:14.845Z,53
2022-08-05T02:42:37.008Z,53
2022-08-05T02:44:14.676Z,53
2022-08-05T02:45:18.942Z,53
2022-08-05T02:46:30.803Z,53
2022-08-05T02:48:14.184Z,53
2022-08-05T02:49:22.521Z,53
2022-08-05T02:50:24.700Z,53
2022-08-05T02:52:05.236Z,53
2022-08-05T02:53:20.086Z,53
2022-08-05T02:54:53.058Z,54
2022-08-05T02:56:07.411Z,54
2022-08-05T02:58:13.970Z,54
2022-08-05T02:59:15.560Z,54
2022-08-05T03:00:20.851Z,54
2022-08-05T03:01:27.325Z,54
2022-08-05T03:02:28.960Z,54
2022-08-05T03:04:16.820Z,54
2022-08-05T03:07:00.628Z,54
2022-08-05T03:08:11.930Z,54
2022-08-05T03:09:53.272Z,54
2022-08-05T03:12:02.140Z,54
2022-08-05T03:14:04.920Z,54
2022-08-05T03:15:13.708Z,54
2022-08-05T03:16:23.770Z,54
2022-08-05T03:17:29.234Z,54
2022-08-05T03:18:32.379Z,54
2022-08-05T03:19:37.100Z,54
2022-08-05T03:20:51.776Z,54
2022-08-05T03:21:59.981Z,54
2022-08-05T03:23:06.238Z,54
2022-08-05T03:24:16.424Z,54
2022-08-05T03:26:33.215Z,55
2022-08-05T03:28:02.086Z,55
2022-08-05T03:29:17.724Z,55
2022-08-05T03:30:34.883Z,55
2022-08-05T03:32:01.197Z,55
2022-08-05T03:33:03.413Z,55
2022-08-05T03:34:04.399Z,54
2022-08-05T03:35:09.170Z,55
2022-08-05T03:36:13.151Z,54
2022-08-05T03:37:16.162Z,55
2022-08-05T03:38:38.182Z,55
2022-08-05T03:40:05.690Z,55
2022-08-05T03:41:14.386Z,55
2022-08-05T03:42:17.617Z,55
2022-08-05T03:44:20.192Z,55
2022-08-05T03:45:25.611Z,55
2022-08-05T03:46:33.171Z,55
2022-08-05T03:47:42.338Z,55
2022-08-05T03:48:47.948Z,55
2022-08-05T03:49:53.102Z,55
2022-08-05T03:52:35.931Z,55
2022-08-05T03:57:18.826Z,55
2022-08-05T03:58:29.957Z,55
2022-08-05T03:59:56.518Z,55
2022-08-05T04:01:00.644Z,55
2022-08-05T04:02:01.935Z,54
2022-08-05T04:03:29.371Z,54
2022-08-05T04:04:30.433Z,54
2022-08-05T04:05:35.670Z,54
2022-08-05T04:06:53.640Z,54
2022-08-05T04:08:00.410Z,54
2022-08-05T04:09:02.284Z,54
2022-08-05T04:10:07.860Z,54
2022-08-05T04:11:52.934Z,54
2022-08-05T04:12:59.477Z,54
2022-08-05T04:14:01.841Z,54
2022-08-05T04:15:04.526Z,54
2022-08-05T04:16:33.214Z,53
2022-08-05T04:18:02.139Z,53
2022-08-05T04:19:13.203Z,53
2022-08-05T04:20:20.273Z,53
2022-08-05T04:22:21.659Z,53
2022-08-05T04:24:22.903Z,53
2022-08-05T04:26:04.531Z,53
2022-08-05T04:27:08.274Z,53
2022-08-05T04:28:15.175Z,53
2022-08-05T04:29:20.129Z,53
2022-08-05T04:30:21.847Z,53
2022-08-05T04:31:39.810Z,53
2022-08-05T04:32:43.481Z,53
2022-08-05T04:34:43.652Z,52
2022-08-05T04:36:52.338Z,52
2022-08-05T04:38:07.666Z,53
2022-08-05T04:39:13.682Z,52
2022-08-05T04:40:20.764Z,52
2022-08-05T04:41:41.247Z,52
2022-08-05T04:42:42.228Z,52
2022-08-05T04:43:55.223Z,52
2022-08-05T04:44:56.775Z,52
2022-08-05T04:46:05.759Z,52
2022-08-05T04:47:20.581Z,52
2022-08-05T04:48:29.082Z,52
2022-08-05T04:50:12.317Z,52
2022-08-05T04:51:14.586Z,52
2022-08-05T04:52:15.819Z,52
2022-08-05T04:53:16.853Z,52
2022-08-05T04:54:19.086Z,52
2022-08-05T04:56:37.759Z,52
2022-08-05T04:57:55.036Z,52
2022-08-05T04:58:57.227Z,52
2022-08-05T04:59:59.555Z,52
2022-08-05T05:01:01.806Z,52
2022-08-05T05:02:44.930Z,52
2022-08-05T05:03:46.614Z,52
2022-08-05T05:05:02.954Z,52
2022-08-05T05:06:58.520Z,52
2022-08-05T05:08:03.045Z,52
2022-08-05T05:09:07.641Z,52
2022-08-05T05:10:08.684Z,52
2022-08-05T05:11:15.447Z,52
2022-08-05T05:12:17.440Z,52
2022-08-05T05:13:21.912Z,51
2022-08-05T05:14:36.728Z,51
2022-08-05T05:16:07.658Z,51
2022-08-05T05:17:10.362Z,51
2022-08-05T05:18:11.859Z,51
2022-08-05T05:19:47.861Z,51
2022-08-05T05:20:54.630Z,51
2022-08-05T05:21:56.867Z,51
2022-08-05T05:23:25.486Z,51
2022-08-05T05:25:17.798Z,51
2022-08-05T05:26:18.795Z,51
2022-08-05T05:27:24.735Z,51
2022-08-05T05:28:58.021Z,51
2022-08-05T05:30:06.088Z,51
2022-08-05T05:32:36.383Z,51
2022-08-05T05:34:03.180Z,51
2022-08-05T05:35:08.823Z,51
2022-08-05T05:36:16.384Z,50
2022-08-05T05:37:19.200Z,50
2022-08-05T05:38:28.685Z,50
2022-08-05T05:39:37.619Z,50
2022-08-05T05:40:55.083Z,50
2022-08-05T05:41:59.426Z,50
2022-08-05T05:43:03.178Z,50
2022-08-05T05:44:46.448Z,50
2022-08-05T05:45:49.162Z,49
2022-08-05T05:46:51.818Z,49
2022-08-05T05:48:10.043Z,49
2022-08-05T05:49:24.267Z,49
2022-08-05T05:50:27.745Z,49
2022-08-05T05:51:29.021Z,49
2022-08-05T05:52:51.914Z,48
2022-08-05T05:54:00.681Z,48
2022-08-05T05:55:14.161Z,48
2022-08-05T05:56:35.641Z,48
2022-08-05T05:57:53.878Z,48
2022-08-05T05:59:05.185Z,48
2022-08-05T06:00:11.789Z,48
2022-08-05T06:01:16.395Z,48
2022-08-05T06:02:38.171Z,47
2022-08-05T06:04:05.126Z,47
2022-08-05T06:05:20.854Z,47
2022-08-05T06:06:34.910Z,46
2022-08-05T06:08:04.170Z,46
2022-08-05T06:09:08.305Z,46
2022-08-05T06:10:19.010Z,46
2022-08-05T06:11:24.496Z,46
2022-08-05T06:12:29.090Z,46
2022-08-05T06:13:55.868Z,45
2022-08-05T06:15:01.180Z,45
2022-08-05T06:16:38.338Z,45
2022-08-05T06:17:55.765Z,45
2022-08-05T06:19:08.563Z,45
2022-08-05T06:20:36.387Z,45
2022-08-05T06:21:54.530Z,45
2022-08-05T06:23:01.347Z,45
2022-08-05T06:24:15.019Z,45
2022-08-05T06:26:33.872Z,45
2022-08-05T06:28:28.415Z,45
2022-08-05T06:30:21.620Z,45
2022-08-05T06:31:34.517Z,44
2022-08-05T06:32:40.761Z,44
2022-08-05T06:34:11.430Z,44
2022-08-05T06:36:10.855Z,44
2022-08-05T06:38:12.359Z,44
2022-08-05T06:39:14.580Z,44
2022-08-05T06:40:32.985Z,44
2022-08-05T06:41:44.271Z,44
2022-08-05T06:42:52.703Z,43
2022-08-05T06:44:01.386Z,43
2022-08-05T06:46:03.454Z,43
2022-08-05T06:49:02.062Z,43
2022-08-05T06:50:19.707Z,42
2022-08-05T06:51:41.268Z,42
2022-08-05T06:53:29.638Z,42
2022-08-05T06:54:30.639Z,41
2022-08-05T06:55:37.707Z,41
2022-08-05T06:58:37.368Z,40
2022-08-05T06:59:59.013Z,40
2022-08-05T07:01:01.992Z,40
2022-08-05T07:02:03.638Z,40
2022-08-05T07:03:10.465Z,39
2022-08-05T07:04:19.907Z,39
2022-08-05T07:05:41.998Z,39
2022-08-05T07:06:43.322Z,39
2022-08-05T07:07:47.971Z,38
2022-08-05T07:08:55.735Z,39
2022-08-05T07:10:07.829Z,39
2022-08-05T07:11:25.308Z,39
2022-08-05T07:12:29.551Z,39
2022-08-05T07:14:00.833Z,38
2022-08-05T07:15:03.848Z,38
2022-08-05T07:18:19.540Z,37
2022-08-05T07:20:39.448Z,37
2022-08-05T07:22:03.133Z,37
2022-08-05T07:23:30.908Z,37
2022-08-05T07:24:54.018Z,36
2022-08-05T07:25:58.405Z,36
2022-08-05T07:27:09.363Z,36
2022-08-05T07:28:19.226Z,36
2022-08-05T07:30:34.587Z,36
2022-08-05T07:31:56.046Z,36
2022-08-05T07:32:59.085Z,36
2022-08-05T07:34:01.205Z,36
2022-08-05T07:36:22.232Z,36
2022-08-05T07:37:47.724Z,36
2022-08-05T07:38:55.753Z,35
2022-08-05T07:40:36.009Z,35
2022-08-05T07:42:36.574Z,35
2022-08-05T07:43:38.204Z,35
2022-08-05T07:44:41.396Z,35
2022-08-05T07:45:59.481Z,34
2022-08-05T07:47:15.127Z,34
2022-08-05T07:49:08.279Z,35
2022-08-05T07:50:09.845Z,34
2022-08-05T07:51:55.825Z,34
2022-08-05T07:52:57.362Z,34
2022-08-05T07:54:03.504Z,33
2022-08-05T07:58:02.586Z,33
2022-08-05T07:59:10.538Z,33
2022-08-05T08:00:14.851Z,33
2022-08-05T08:01:22.868Z,33
2022-08-05T08:03:16.463Z,33
2022-08-05T08:04:39.266Z,33
2022-08-05T08:05:50.649Z,33
2022-08-05T08:06:52.385Z,32
2022-08-05T08:08:02.741Z,32
2022-08-05T08:10:21.303Z,32
2022-08-05T08:12:48.407Z,32
2022-08-05T08:14:01.939Z,33
2022-08-05T08:15:16.487Z,31
2022-08-05T08:16:54.460Z,32
2022-08-05T08:18:23.435Z,32
2022-08-05T08:21:17.943Z,31
2022-08-05T08:22:32.597Z,31
2022-08-05T08:26:08.333Z,31
2022-08-05T08:27:09.911Z,31
2022-08-05T08:29:45.615Z,31
2022-08-05T08:31:36.745Z,30
2022-08-05T08:32:53.965Z,30
2022-08-05T08:34:01.139Z,30
2022-08-05T08:35:13.911Z,30
2022-08-05T08:37:06.160Z,30
2022-08-05T08:38:07.993Z,29
2022-08-05T08:39:20.430Z,30
2022-08-05T08:40:24.908Z,29
2022-08-05T08:42:02.553Z,29
2022-08-05T08:45:30.831Z,29
2022-08-05T08:46:34.243Z,30
2022-08-05T08:50:30.793Z,30
2022-08-05T08:52:57.143Z,30
2022-08-05T08:54:02.552Z,29
2022-08-05T08:56:06.122Z,29
2022-08-05T08:57:17.800Z,29
2022-08-05T08:58:50.930Z,29
2022-08-05T08:59:59.275Z,29
2022-08-05T09:02:18.285Z,29
2022-08-05T09:03:21.942Z,28
2022-08-05T09:04:32.518Z,28
2022-08-05T09:06:24.345Z,29
2022-08-05T09:07:59.596Z,29
2022-08-05T09:09:01.553Z,29
2022-08-05T09:10:05.653Z,29
2022-08-05T09:11:54.159Z,29
2022-08-05T09:13:16.921Z,29
2022-08-05T09:15:08.509Z,29
2022-08-05T09:16:20.209Z,29
2022-08-05T09:17:53.702Z,29
2022-08-05T09:19:00.639Z,29
2022-08-05T09:20:09.352Z,27
2022-08-05T09:22:33.565Z,28
2022-08-05T09:23:44.522Z,28
2022-08-05T09:24:49.657Z,28
2022-08-05T09:26:09.621Z,28
2022-08-05T09:28:13.832Z,28
2022-08-05T09:29:47.857Z,28
2022-08-05T09:30:53.346Z,28
2022-08-05T09:32:52.823Z,28
2022-08-05T09:33:57.498Z,28
2022-08-05T09:35:09.872Z,29
2022-08-05T09:36:19.610Z,28
2022-08-05T09:38:30.380Z,28
2022-08-05T09:39:57.780Z,28
2022-08-05T09:41:00.714Z,28
2022-08-05T09:42:13.513Z,28
2022-08-05T09:43:49.608Z,28
2022-08-05T09:44:57.332Z,27
2022-08-05T09:47:20.900Z,27
2022-08-05T09:48:30.644Z,27
2022-08-05T09:50:04.892Z,26
2022-08-05T09:51:17.010Z,27
2022-08-05T09:52:22.744Z,27
2022-08-05T09:56:13.829Z,26
2022-08-05T09:57:26.380Z,26
2022-08-05T09:58:29.882Z,26
2022-08-05T09:59:37.827Z,26
2022-08-05T10:00:41.674Z,26
2022-08-05T10:01:47.594Z,26
2022-08-05T10:03:01.279Z,26
2022-08-05T10:04:11.561Z,26
2022-08-05T10:05:15.302Z,26
2022-08-05T10:06:21.382Z,26
2022-08-05T10:08:43.098Z,26
2022-08-05T10:10:32.848Z,26
2022-08-05T10:11:37.077Z,26
2022-08-05T10:12:53.386Z,26
2022-08-05T10:13:59.545Z,26
2022-08-05T10:15:11.499Z,26
2022-08-05T10:16:19.768Z,26
2022-08-05T10:17:57.987Z,26
2022-08-05T10:19:12.220Z,26
2022-08-05T10:20:22.851Z,26
2022-08-05T10:21:41.952Z,26
2022-08-05T10:22:53.770Z,26
2022-08-05T10:24:11.493Z,26
2022-08-05T10:25:16.103Z,27
2022-08-05T10:26:17.551Z,26
2022-08-05T10:28:30.968Z,26
2022-08-05T10:33:03.438Z,27
2022-08-05T10:34:10.492Z,27
2022-08-05T10:35:12.972Z,26
2022-08-05T10:36:26.732Z,26
2022-08-05T10:37:54.330Z,26
2022-08-05T10:40:04.367Z,26
2022-08-05T10:41:24.615Z,26
2022-08-05T10:42:44.081Z,26
2022-08-05T10:43:48.718Z,26
2022-08-05T10:44:51.784Z,26
2022-08-05T10:46:08.601Z,26
2022-08-05T10:47:32.825Z,26
2022-08-05T10:49:17.162Z,26
2022-08-05T10:50:38.512Z,26
2022-08-05T10:52:10.720Z,26
2022-08-05T10:53:24.247Z,27
2022-08-05T10:54:57.223Z,26
2022-08-05T10:56:26.989Z,26
2022-08-05T10:57:44.946Z,26
2022-08-05T10:58:53.187Z,26
2022-08-05T11:00:23.270Z,26
2022-08-05T11:02:06.850Z,26
2022-08-05T11:03:39.894Z,27
2022-08-05T11:04:45.529Z,27
2022-08-05T11:05:53.990Z,27
2022-08-05T11:07:06.030Z,27
2022-08-05T11:08:41.094Z,26
2022-08-05T11:09:48.805Z,26
2022-08-05T11:11:17.023Z,26
2022-08-05T11:12:19.746Z,27
2022-08-05T11:13:23.889Z,26
2022-08-05T11:15:21.845Z,27
2022-08-05T11:18:01.746Z,27
2022-08-05T11:20:26.957Z,27
2022-08-05T11:21:58.391Z,26
2022-08-05T11:23:11.604Z,26
2022-08-05T11:24:31.875Z,26
2022-08-05T11:26:10.951Z,26
2022-08-05T11:27:14.282Z,26
2022-08-05T11:28:18.273Z,26
2022-08-05T11:29:23.701Z,26
2022-08-05T11:30:31.558Z,26
2022-08-05T11:32:02.340Z,26
2022-08-05T11:33:21.686Z,26
2022-08-05T11:34:33.916Z,26
2022-08-05T11:36:09.701Z,26
2022-08-05T11:38:53.827Z,26
2022-08-05T11:40:05.374Z,26
2022-08-05T11:42:07.664Z,26
2022-08-05T11:44:11.843Z,27
2022-08-05T11:46:35.507Z,26
2022-08-05T11:47:55.605Z,26
2022-08-05T11:49:00.900Z,26
2022-08-05T11:50:03.658Z,26
2022-08-05T11:51:49.944Z,26
2022-08-05T11:53:10.900Z,26
2022-08-05T11:54:21.724Z,26
2022-08-05T11:55:37.916Z,26
2022-08-05T11:56:42.227Z,27
2022-08-05T11:58:19.143Z,26
2022-08-05T11:59:24.747Z,26
2022-08-05T12:00:31.089Z,26
2022-08-05T12:01:33.926Z,26
2022-08-05T12:02:46.203Z,25
2022-08-05T12:03:57.524Z,26
2022-08-05T12:05:01.138Z,26
2022-08-05T12:06:21.069Z,26
2022-08-05T12:08:20.525Z,26
2022-08-05T12:09:54.396Z,26
2022-08-05T12:10:56.463Z,26
2022-08-05T12:12:05.064Z,26
2022-08-05T12:13:50.707Z,26
2022-08-05T12:14:57.496Z,26
2022-08-05T12:15:59.664Z,26
2022-08-05T12:18:12.492Z,26
2022-08-05T12:20:35.118Z,26
2022-08-05T12:21:40.104Z,26
2022-08-05T12:22:52.165Z,26
2022-08-05T12:23:53.168Z,26
2022-08-05T12:24:55.425Z,25
2022-08-05T12:25:57.902Z,25
2022-08-05T12:27:25.719Z,25
2022-08-05T12:28:38.240Z,25
2022-08-05T12:29:41.144Z,26
2022-08-05T12:30:56.547Z,26
2022-08-05T12:32:04.983Z,26
2022-08-05T12:33:43.704Z,26
2022-08-05T12:34:50.958Z,26
2022-08-05T12:35:54.314Z,26
2022-08-05T12:36:56.456Z,25
2022-08-05T12:37:59.014Z,25
2022-08-05T12:39:00.777Z,25
2022-08-05T12:40:29.932Z,25
2022-08-05T12:41:44.672Z,25
2022-08-05T12:42:49.802Z,25
2022-08-05T12:43:50.809Z,25
2022-08-05T12:44:52.317Z,25
2022-08-05T12:45:53.327Z,25
2022-08-05T12:46:58.120Z,25
2022-08-05T12:48:33.810Z,25
2022-08-05T12:50:11.118Z,25
2022-08-05T12:52:42.992Z,25
2022-08-05T12:53:59.989Z,25
2022-08-05T12:55:03.384Z,25
2022-08-05T12:56:37.812Z,26
2022-08-05T12:59:11.043Z,26
2022-08-05T13:02:11.326Z,26
2022-08-05T13:03:17.999Z,25
2022-08-05T13:04:26.092Z,25
2022-08-05T13:05:42.367Z,25
2022-08-05T13:06:54.401Z,25
2022-08-05T13:08:09.121Z,25
2022-08-05T13:09:29.401Z,25
2022-08-05T13:10:31.457Z,25
2022-08-05T13:12:04.324Z,25
2022-08-05T13:14:08.478Z,25
2022-08-05T13:15:51.292Z,25
2022-08-05T13:16:56.967Z,25
2022-08-05T13:18:02.781Z,25
2022-08-05T13:19:04.856Z,25
2022-08-05T13:20:11.882Z,25
2022-08-05T13:21:14.584Z,25
2022-08-05T13:22:31.424Z,25
2022-08-05T13:23:52.471Z,24
2022-08-05T13:25:21.855Z,24
2022-08-05T13:27:02.404Z,24
2022-08-05T13:28:05.134Z,24
2022-08-05T13:29:07.024Z,24
2022-08-05T13:30:40.589Z,24
2022-08-05T13:32:07.271Z,24
2022-08-05T13:34:28.465Z,24
2022-08-05T13:35:52.385Z,24
2022-08-05T13:36:53.986Z,24
2022-08-05T13:38:06.607Z,24
2022-08-05T13:40:53.130Z,24
2022-08-05T13:41:57.270Z,24
2022-08-05T13:42:58.272Z,24
2022-08-05T13:44:00.407Z,24
2022-08-05T13:45:02.992Z,24
2022-08-05T13:46:11.944Z,24
2022-08-05T13:49:04.357Z,24
2022-08-05T13:50:19.000Z,24
2022-08-05T13:51:21.292Z,24
2022-08-05T13:52:36.453Z,24
2022-08-05T13:53:49.724Z,24
2022-08-05T13:54:54.783Z,24
2022-08-05T13:56:03.249Z,25
2022-08-05T13:57:20.394Z,24
2022-08-05T13:58:32.575Z,25
2022-08-05T14:00:02.307Z,23
2022-08-05T14:01:08.274Z,24
2022-08-05T14:02:31.944Z,24
2022-08-05T14:03:42.432Z,25
2022-08-05T14:04:53.491Z,24
2022-08-05T14:06:29.217Z,24
2022-08-05T14:08:35.938Z,25
2022-08-05T14:09:47.577Z,24
2022-08-05T14:10:49.553Z,24
2022-08-05T14:12:33.591Z,24
2022-08-05T14:13:36.039Z,24
2022-08-05T14:14:37.818Z,24
2022-08-05T14:16:19.550Z,24
2022-08-05T14:17:21.382Z,24
2022-08-05T14:18:25.353Z,24
2022-08-05T14:19:29.509Z,24
2022-08-05T14:20:30.524Z,24
2022-08-05T14:22:12.751Z,24
2022-08-05T14:23:36.869Z,24
2022-08-05T14:24:40.646Z,25
2022-08-05T14:27:19.964Z,25
2022-08-05T14:28:29.103Z,25
2022-08-05T14:29:33.881Z,24
2022-08-05T14:30:37.007Z,24
2022-08-05T14:32:29.128Z,24
2022-08-05T14:34:02.270Z,24
2022-08-05T14:35:11.865Z,24
2022-08-05T14:36:12.874Z,25
2022-08-05T14:37:14.786Z,25
2022-08-05T14:38:37.086Z,25
2022-08-05T14:40:00.131Z,26
2022-08-05T14:41:07.604Z,26
2022-08-05T14:42:22.528Z,25
2022-08-05T14:44:22.889Z,25
2022-08-05T14:45:26.712Z,25
2022-08-05T14:46:35.590Z,25
2022-08-05T14:48:34.159Z,25
2022-08-05T14:50:20.123Z,25
2022-08-05T14:51:21.791Z,26
2022-08-05T14:53:00.743Z,26
2022-08-05T14:55:56.022Z,26
2022-08-05T14:56:57.615Z,27
2022-08-05T14:58:00.630Z,27
2022-08-05T14:59:16.341Z,27
2022-08-05T15:00:32.759Z,27
2022-08-05T15:01:51.351Z,26
2022-08-05T15:02:56.637Z,27
2022-08-05T15:04:01.975Z,27
2022-08-05T15:05:15.231Z,27
2022-08-05T15:06:30.224Z,27
2022-08-05T15:09:04.247Z,27
2022-08-05T15:10:11.620Z,27
2022-08-05T15:11:15.186Z,27
2022-08-05T15:12:18.733Z,27
2022-08-05T15:13:51.026Z,27
2022-08-05T15:14:57.960Z,27
2022-08-05T15:16:00.287Z,28
2022-08-05T15:18:51.251Z,28
2022-08-05T15:20:00.778Z,28
2022-08-05T15:21:09.706Z,28
2022-08-05T15:22:21.265Z,28
2022-08-05T15:23:29.979Z,28
2022-08-05T15:24:31.878Z,28
2022-08-05T15:26:03.821Z,28
2022-08-05T15:27:09.960Z,27
2022-08-05T15:28:16.907Z,27
2022-08-05T15:29:42.322Z,28
2022-08-05T15:30:53.970Z,28
2022-08-05T15:32:03.187Z,29
2022-08-05T15:33:08.792Z,28
2022-08-05T15:34:34.690Z,28
2022-08-05T15:35:46.204Z,28
2022-08-05T15:36:51.009Z,28
2022-08-05T15:38:43.758Z,29
2022-08-05T15:41:58.622Z,28
2022-08-05T15:43:22.866Z,28
2022-08-05T15:44:31.498Z,28
2022-08-05T15:45:39.718Z,28
2022-08-05T15:46:42.011Z,28
2022-08-05T15:47:44.257Z,28
2022-08-05T15:49:48.087Z,29
2022-08-05T15:51:08.230Z,29
2022-08-05T15:53:01.926Z,29
2022-08-05T15:54:16.075Z,28
2022-08-05T15:55:19.275Z,29
2022-08-05T15:57:10.195Z,29
2022-08-05T15:58:23.589Z,29
2022-08-05T15:59:29.767Z,29
2022-08-05T16:01:19.127Z,29
2022-08-05T16:02:33.860Z,29
2022-08-05T16:03:42.211Z,28
2022-08-05T16:04:44.154Z,28
2022-08-05T16:05:57.428Z,29
2022-08-05T16:06:58.912Z,29
2022-08-05T16:08:01.739Z,29
2022-08-05T16:09:03.071Z,29
2022-08-05T16:10:11.832Z,29
2022-08-05T16:11:15.540Z,29
2022-08-05T16:12:20.066Z,29
2022-08-05T16:13:36.070Z,29
2022-08-05T16:14:37.747Z,29
2022-08-05T16:15:44.265Z,29
2022-08-05T16:16:53.596Z,29
2022-08-05T16:18:09.390Z,29
2022-08-05T16:20:12.687Z,29
2022-08-05T16:21:14.456Z,29
2022-08-05T16:22:16.458Z,29
2022-08-05T16:23:18.049Z,29
2022-08-05T16:24:52.704Z,29
2022-08-05T16:25:57.640Z,29
2022-08-05T16:26:58.685Z,29
2022-08-05T16:28:11.595Z,29
2022-08-05T16:29:22.646Z,29
2022-08-05T16:30:31.964Z,29
2022-08-05T16:31:58.691Z,29
2022-08-05T16:33:03.389Z,29
2022-08-05T16:34:10.189Z,29
2022-08-05T16:35:18.661Z,29
2022-08-05T16:36:35.807Z,29
2022-08-05T16:38:29.307Z,29
2022-08-05T16:40:30.036Z,29
2022-08-05T16:42:28.851Z,29
2022-08-05T16:43:32.794Z,29
2022-08-05T16:44:33.812Z,29
2022-08-05T16:46:25.512Z,29
2022-08-05T16:48:03.301Z,29
2022-08-05T16:49:08.166Z,29
2022-08-05T16:50:12.378Z,29
2022-08-05T16:51:16.431Z,29
2022-08-05T16:52:21.505Z,29
2022-08-05T16:54:30.416Z,29
2022-08-05T16:55:48.389Z,29
2022-08-05T16:56:53.468Z,29
2022-08-05T16:58:09.675Z,29
2022-08-05T16:59:18.119Z,29
2022-08-05T17:00:40.349Z,29
2022-08-05T17:01:57.623Z,30
2022-08-05T17:03:15.498Z,30
2022-08-05T17:04:29.031Z,30
2022-08-05T17:05:37.656Z,30
2022-08-05T17:06:42.825Z,30
2022-08-05T17:07:57.397Z,30
2022-08-05T17:09:00.322Z,30
2022-08-05T17:10:04.113Z,30
2022-08-05T17:11:17.750Z,30
2022-08-05T17:12:54.306Z,30
2022-08-05T17:14:37.061Z,30
2022-08-05T17:16:36.291Z,30
2022-08-05T17:17:43.581Z,30
2022-08-05T17:18:45.985Z,30
2022-08-05T17:20:02.089Z,30
2022-08-05T17:21:05.849Z,30
2022-08-05T17:22:26.295Z,30
2022-08-05T17:24:58.591Z,31
2022-08-05T17:26:16.761Z,31
2022-08-05T17:27:23.253Z,31
2022-08-05T17:28:38.332Z,31
2022-08-05T17:29:53.062Z,31
2022-08-05T17:31:59.809Z,31
2022-08-05T17:34:38.238Z,31
2022-08-05T17:36:41.385Z,31
2022-08-05T17:37:51.252Z,31
2022-08-05T17:39:05.683Z,31
2022-08-05T17:40:43.194Z,31
2022-08-05T17:42:41.505Z,31
2022-08-05T17:43:59.565Z,31
2022-08-05T17:45:24.585Z,31
2022-08-05T17:46:43.485Z,31
2022-08-05T17:47:56.808Z,31
2022-08-05T17:48:58.963Z,31
2022-08-05T17:50:12.419Z,31
2022-08-05T17:51:22.257Z,31
2022-08-05T17:52:28.519Z,31
2022-08-05T17:53:37.379Z,31
2022-08-05T17:54:40.769Z,31
2022-08-05T17:55:42.247Z,31
2022-08-05T17:56:51.909Z,31
2022-08-05T17:57:53.749Z,31
2022-08-05T17:58:55.284Z,31
2022-08-05T18:00:07.718Z,32
2022-08-05T18:01:11.805Z,32
2022-08-05T18:02:19.265Z,32
2022-08-05T18:04:12.754Z,32
2022-08-05T18:05:37.965Z,32
2022-08-05T18:06:39.791Z,32
2022-08-05T18:07:50.862Z,32
2022-08-05T18:08:53.441Z,32
2022-08-05T18:10:21.553Z,32
2022-08-05T18:11:36.435Z,33
2022-08-05T18:12:38.077Z,33
2022-08-05T18:13:44.927Z,33
2022-08-05T18:14:47.834Z,33
2022-08-05T18:15:50.075Z,33
2022-08-05T18:16:53.776Z,33
2022-08-05T18:18:11.940Z,33
2022-08-05T18:19:14.419Z,33
2022-08-05T18:20:18.489Z,33
2022-08-05T18:22:18.230Z,33
2022-08-05T18:23:22.900Z,34
2022-08-05T18:24:46.981Z,34
2022-08-05T18:26:00.292Z,33
2022-08-05T18:27:02.539Z,33
2022-08-05T18:28:06.906Z,33
2022-08-05T18:29:17.011Z,34
2022-08-05T18:30:41.178Z,34
2022-08-05T18:31:44.962Z,34
2022-08-05T18:33:01.890Z,34
2022-08-05T18:34:02.967Z,34
2022-08-05T18:35:11.861Z,34
2022-08-05T18:36:28.398Z,34
2022-08-05T18:37:42.283Z,34
2022-08-05T18:38:43.848Z,34
2022-08-05T18:42:19.841Z,34
2022-08-05T18:43:23.847Z,35
2022-08-05T18:44:57.328Z,35
2022-08-05T18:46:00.218Z,35
2022-08-05T18:47:02.906Z,35
2022-08-05T18:48:05.208Z,35
2022-08-05T18:49:19.482Z,35
2022-08-05T18:50:48.591Z,35
2022-08-05T18:52:11.252Z,35
2022-08-05T18:53:34.966Z,35
2022-08-05T18:54:56.729Z,35
2022-08-05T18:56:01.241Z,35
2022-08-05T18:57:16.965Z,35
2022-08-05T18:58:29.650Z,36
2022-08-05T19:00:29.829Z,36
2022-08-05T19:02:00.133Z,36
2022-08-05T19:03:08.563Z,36
2022-08-05T19:04:27.613Z,36
2022-08-05T19:06:45.955Z,36
2022-08-05T19:07:48.505Z,36
2022-08-05T19:08:53.881Z,36
2022-08-05T19:09:56.660Z,36
2022-08-05T19:11:08.091Z,36
2022-08-05T19:12:15.054Z,36
2022-08-05T19:13:22.182Z,36
2022-08-05T19:15:03.711Z,36
2022-08-05T19:16:31.039Z,37
2022-08-05T19:18:23.462Z,37
2022-08-05T19:19:25.563Z,37
2022-08-05T19:20:28.269Z,37
2022-08-05T19:21:36.755Z,37
2022-08-05T19:22:40.662Z,37
2022-08-05T19:24:13.907Z,37
2022-08-05T19:25:45.309Z,37
2022-08-05T19:26:58.849Z,37
2022-08-05T19:28:05.027Z,37